createdAt,value
2022-10-01T00:01:27.053Z,16.80
2022-10-01T00:04:32.949Z,16.80
2022-10-01T00:07:43.308Z,16.80
2022-10-01T00:10:45.568Z,16.70
2022-10-01T00:13:48.537Z,16.70
2022-10-01T00:16:50.686Z,16.70
2022-10-01T00:19:52.701Z,16.70
2022-10-01T00:22:54.888Z,16.70
2022-10-01T00:26:08.407Z,16.70
2022-10-01T00:29:14.264Z,16.70
2022-10-01T00:32:16.424Z,16.70
2022-10-01T00:35:18.451Z,16.70
2022-10-01T00:38:21.191Z,16.70
2022-10-01T00:41:23.520Z,16.60
2022-10-01T00:44:35.430Z,16.60
2022-10-01T00:47:43.295Z,16.60
2022-10-01T00:50:49.186Z,16.60
2022-10-01T00:53:53.392Z,16.60
2022-10-01T00:56:59.653Z,16.50
2022-10-01T01:00:04.912Z,16.50
2022-10-01T01:03:09.944Z,16.60
2022-10-01T01:06:11.917Z,16.50
2022-10-01T01:09:14.438Z,16.50
2022-10-01T01:12:37.446Z,16.50
2022-10-01T01:15:59.840Z,16.50
2022-10-01T01:19:28.481Z,16.40
2022-10-01T01:22:40.382Z,16.40
2022-10-01T01:26:12.470Z,16.40
2022-10-01T01:29:24.169Z,16.40
2022-10-01T01:32:55.477Z,16.40
2022-10-01T01:36:04.712Z,16.40
2022-10-01T01:39:09.903Z,16.40
2022-10-01T01:42:21.508Z,16.30
2022-10-01T01:45:29.592Z,16.30
2022-10-01T01:48:33.423Z,16.30
2022-10-01T01:51:43.981Z,16.30
2022-10-01T01:54:48.419Z,16.30
2022-10-01T01:57:51.559Z,16.30
2022-10-01T02:00:54.041Z,16.30
2022-10-01T02:03:56.535Z,16.30
2022-10-01T02:06:59.070Z,16.30
2022-10-01T02:10:22.832Z,16.30
2022-10-01T02:13:50.259Z,16.30
2022-10-01T02:17:16.779Z,16.30
2022-10-01T02:20:27.258Z,16.20
2022-10-01T02:23:39.237Z,16.20
2022-10-01T02:26:44.728Z,16.20
2022-10-01T02:29:48.773Z,16.20
2022-10-01T02:32:52.713Z,16.20
2022-10-01T02:35:57.327Z,16.10
2022-10-01T02:38:59.598Z,16.10
2022-10-01T02:42:03.750Z,16.10
2022-10-01T02:45:07.656Z,16.10
2022-10-01T02:48:12.038Z,16.10
2022-10-01T02:51:19.930Z,16.10
2022-10-01T02:54:37.419Z,16.20
2022-10-01T02:57:39.937Z,16.20
2022-10-01T03:00:42.108Z,16.20
2022-10-01T03:03:44.154Z,16.10
2022-10-01T03:06:46.482Z,16.10
2022-10-01T03:09:49.724Z,16.10
2022-10-01T03:12:51.723Z,16.10
2022-10-01T03:15:54.076Z,16.10
2022-10-01T03:18:56.297Z,16.10
2022-10-01T03:21:58.341Z,16.10
2022-10-01T03:25:00.371Z,16.10
2022-10-01T03:28:02.504Z,16.10
2022-10-01T03:31:09.542Z,16.00
2022-10-01T03:34:11.993Z,16.00
2022-10-01T03:37:14.058Z,16.00
2022-10-01T03:40:16.151Z,16.00
2022-10-01T03:43:18.244Z,16.00
2022-10-01T03:46:21.746Z,16.00
2022-10-01T03:49:23.917Z,16.00
2022-10-01T03:52:25.955Z,16.00
2022-10-01T03:55:28.530Z,16.00
2022-10-01T03:58:30.772Z,16.00
2022-10-01T04:01:33.804Z,16.00
2022-10-01T04:04:36.413Z,16.00
2022-10-01T04:07:38.430Z,16.00
2022-10-01T04:10:41.242Z,16.00
2022-10-01T04:13:43.508Z,16.00
2022-10-01T04:16:46.866Z,16.00
2022-10-01T04:19:48.865Z,16.00
2022-10-01T04:22:51.143Z,16.00
2022-10-01T04:25:53.340Z,16.00
2022-10-01T04:28:55.474Z,16.00
2022-10-01T04:31:58.386Z,16.00
2022-10-01T04:35:01.230Z,16.00
2022-10-01T04:38:09.002Z,15.90
2022-10-01T04:41:11.018Z,16.00
2022-10-01T04:44:13.844Z,15.90
2022-10-01T04:47:16.002Z,15.90
2022-10-01T04:50:19.157Z,15.90
2022-10-01T04:53:24.143Z,16.00
2022-10-01T04:56:26.261Z,16.00
2022-10-01T04:59:28.446Z,16.00
2022-10-01T05:02:30.742Z,16.00
2022-10-01T05:05:35.174Z,15.90
2022-10-01T05:08:38.099Z,15.90
2022-10-01T05:11:42.324Z,15.90
2022-10-01T05:14:44.318Z,15.90
2022-10-01T05:17:47.435Z,15.80
2022-10-01T05:20:49.510Z,15.90
2022-10-01T05:23:52.562Z,15.90
2022-10-01T05:26:54.636Z,15.80
2022-10-01T05:29:57.048Z,15.90
2022-10-01T05:33:01.373Z,15.90
2022-10-01T05:36:06.886Z,15.90
2022-10-01T05:39:09.190Z,15.90
2022-10-01T05:42:11.250Z,15.90
2022-10-01T05:45:13.920Z,15.90
2022-10-01T05:48:17.009Z,15.90
2022-10-01T05:51:19.397Z,15.90
2022-10-01T05:54:23.390Z,15.90
2022-10-01T05:57:25.423Z,15.80
2022-10-01T06:00:29.357Z,15.80
2022-10-01T06:03:32.091Z,15.80
2022-10-01T06:06:34.169Z,15.90
2022-10-01T06:09:36.207Z,15.90
2022-10-01T06:12:38.298Z,15.90
2022-10-01T06:15:40.363Z,15.90
2022-10-01T06:18:42.787Z,15.90
2022-10-01T06:21:44.975Z,15.90
2022-10-01T06:24:47.191Z,15.90
2022-10-01T06:27:55.635Z,15.90
2022-10-01T06:30:57.887Z,15.80
2022-10-01T06:34:01.028Z,15.90
2022-10-01T06:37:03.159Z,15.90
2022-10-01T06:40:07.321Z,15.90
2022-10-01T06:43:10.147Z,15.90
2022-10-01T06:46:12.339Z,15.90
2022-10-01T06:49:14.444Z,15.90
2022-10-01T06:52:35.007Z,16.00
2022-10-01T06:55:38.773Z,16.10
2022-10-01T06:58:42.035Z,16.30
2022-10-01T07:01:45.029Z,16.80
2022-10-01T07:04:48.033Z,17.30
2022-10-01T07:07:50.193Z,18.20
2022-10-01T07:10:53.127Z,19.10
2022-10-01T07:13:57.688Z,19.80
2022-10-01T07:16:59.687Z,20.30
2022-10-01T07:20:01.996Z,20.30
2022-10-01T07:23:27.016Z,20.50
2022-10-01T07:26:29.430Z,21.00
2022-10-01T07:29:32.128Z,21.40
2022-10-01T07:32:35.534Z,22.30
2022-10-01T07:35:39.845Z,23.30
2022-10-01T07:38:43.944Z,24.60
2022-10-01T07:41:46.039Z,25.10
2022-10-01T07:44:48.261Z,26.00
2022-10-01T07:48:01.792Z,26.60
2022-10-01T07:51:04.023Z,27.20
2022-10-01T07:54:06.555Z,27.30
2022-10-01T07:57:08.617Z,28.20
2022-10-01T08:00:11.965Z,28.90
2022-10-01T08:03:14.126Z,29.50
2022-10-01T08:06:20.829Z,30.40
2022-10-01T08:09:25.434Z,31.00
2022-10-01T08:12:28.994Z,31.70
2022-10-01T08:15:31.274Z,31.20
2022-10-01T08:18:34.075Z,31.80
2022-10-01T08:21:36.793Z,31.70
2022-10-01T08:24:39.940Z,32.20
2022-10-01T08:28:00.274Z,32.90
2022-10-01T08:31:18.211Z,32.80
2022-10-01T08:34:20.283Z,32.90
2022-10-01T08:37:55.642Z,33.50
2022-10-01T08:41:00.841Z,34.00
2022-10-01T08:44:07.477Z,33.50
2022-10-01T08:47:23.627Z,33.40
2022-10-01T08:50:44.804Z,34.20
2022-10-01T08:54:09.144Z,34.20
2022-10-01T08:57:18.430Z,33.80
2022-10-01T09:00:21.611Z,34.30
2022-10-01T09:03:24.027Z,34.50
2022-10-01T09:06:28.098Z,34.50
2022-10-01T09:09:45.411Z,34.00
2022-10-01T09:13:10.006Z,34.20
2022-10-01T09:16:18.333Z,34.20
2022-10-01T09:19:59.078Z,34.00
2022-10-01T09:23:29.544Z,34.40
2022-10-01T09:26:32.285Z,34.70
2022-10-01T09:29:43.454Z,34.60
2022-10-01T09:33:22.910Z,34.70
2022-10-01T09:36:39.775Z,34.40
2022-10-01T09:40:03.087Z,34.60
2022-10-01T09:43:08.798Z,34.80
2022-10-01T09:46:17.405Z,35.00
2022-10-01T09:49:34.053Z,35.30
2022-10-01T09:52:39.346Z,35.60
2022-10-01T09:55:44.613Z,34.90
2022-10-01T09:58:54.266Z,35.20
2022-10-01T10:02:02.417Z,35.50
2022-10-01T10:05:07.366Z,35.70
2022-10-01T10:08:31.348Z,36.20
2022-10-01T10:11:34.298Z,36.10
2022-10-01T10:14:41.321Z,35.30
2022-10-01T10:17:46.474Z,35.50
2022-10-01T10:20:54.140Z,35.30
2022-10-01T10:24:00.556Z,35.40
2022-10-01T10:27:06.256Z,35.20
2022-10-01T10:30:16.737Z,34.80
2022-10-01T10:34:05.556Z,34.80
2022-10-01T10:37:15.384Z,35.00
2022-10-01T10:40:29.586Z,35.20
2022-10-01T10:43:38.411Z,34.90
2022-10-01T10:46:45.326Z,35.40
2022-10-01T10:50:00.561Z,35.70
2022-10-01T10:53:20.142Z,35.20
2022-10-01T10:56:24.691Z,35.40
2022-10-01T10:59:27.397Z,35.70
2022-10-01T11:02:33.331Z,35.80
2022-10-01T11:05:41.572Z,35.90
2022-10-01T11:08:44.584Z,35.90
2022-10-01T11:11:55.440Z,35.70
2022-10-01T11:15:22.491Z,36.10
2022-10-01T11:18:48.902Z,35.80
2022-10-01T11:22:04.200Z,35.90
2022-10-01T11:25:18.162Z,35.60
2022-10-01T11:28:35.661Z,34.90
2022-10-01T11:31:47.755Z,34.80
2022-10-01T11:35:19.368Z,33.40
2022-10-01T11:38:42.646Z,32.40
2022-10-01T11:41:55.452Z,31.00
2022-10-01T11:45:07.818Z,30.10
2022-10-01T11:48:19.538Z,29.40
2022-10-01T11:51:27.290Z,28.50
2022-10-01T11:54:31.423Z,28.00
2022-10-01T11:57:52.410Z,27.70
2022-10-01T12:01:11.138Z,27.30
2022-10-01T12:04:34.301Z,26.80
2022-10-01T12:07:54.269Z,26.50
2022-10-01T12:11:05.656Z,26.10
2022-10-01T12:14:17.486Z,25.80
2022-10-01T12:17:26.786Z,25.70
2022-10-01T12:20:37.809Z,25.50
2022-10-01T12:23:58.977Z,25.60
2022-10-01T12:27:05.098Z,25.50
2022-10-01T12:30:13.912Z,25.40
2022-10-01T12:33:37.866Z,25.50
2022-10-01T12:36:43.028Z,25.40
2022-10-01T12:40:01.203Z,25.50
2022-10-01T12:43:40.754Z,25.50
2022-10-01T12:47:09.443Z,25.30
2022-10-01T12:50:59.760Z,25.40
2022-10-01T12:54:41.912Z,25.30
2022-10-01T12:58:04.224Z,25.20
2022-10-01T13:01:11.288Z,25.20
2022-10-01T13:04:51.203Z,25.10
2022-10-01T13:08:03.109Z,25.20
2022-10-01T13:11:44.911Z,25.30
2022-10-01T13:14:49.093Z,25.40
2022-10-01T13:18:14.657Z,25.40
2022-10-01T13:21:42.237Z,25.30
2022-10-01T13:25:24.672Z,25.50
2022-10-01T13:28:49.260Z,25.60
2022-10-01T13:32:02.424Z,25.60
2022-10-01T13:35:35.271Z,25.70
2022-10-01T13:38:38.065Z,25.70
2022-10-01T13:41:40.176Z,25.60
2022-10-01T13:44:42.678Z,25.60
2022-10-01T13:47:44.756Z,25.60
2022-10-01T13:51:10.846Z,25.70
2022-10-01T13:54:27.898Z,25.80
2022-10-01T13:57:38.539Z,25.90
2022-10-01T14:00:49.835Z,25.90
2022-10-01T14:04:14.581Z,25.90
2022-10-01T14:07:25.360Z,26.00
2022-10-01T14:10:36.536Z,26.00
2022-10-01T14:14:05.608Z,26.00
2022-10-01T14:17:09.560Z,26.00
2022-10-01T14:20:34.361Z,26.10
2022-10-01T14:23:54.284Z,26.10
2022-10-01T14:27:10.516Z,26.20
2022-10-01T14:30:18.624Z,26.30
2022-10-01T14:33:41.605Z,26.40
2022-10-01T14:36:52.180Z,26.40
2022-10-01T14:40:22.194Z,26.50
2022-10-01T14:43:31.942Z,26.50
2022-10-01T14:46:36.361Z,26.60
2022-10-01T14:49:39.049Z,26.60
2022-10-01T14:52:47.542Z,26.60
2022-10-01T14:55:54.647Z,26.60
2022-10-01T14:59:03.403Z,26.60
2022-10-01T15:02:20.663Z,26.60
2022-10-01T15:05:22.829Z,26.60
2022-10-01T15:08:41.049Z,26.60
2022-10-01T15:11:44.827Z,26.60
2022-10-01T15:14:47.590Z,26.60
2022-10-01T15:17:50.236Z,26.60
2022-10-01T15:20:58.937Z,26.50
2022-10-01T15:24:04.411Z,26.60
2022-10-01T15:27:09.688Z,26.60
2022-10-01T15:30:16.033Z,26.60
2022-10-01T15:33:36.221Z,26.60
2022-10-01T15:36:39.849Z,26.70
2022-10-01T15:39:47.638Z,26.70
2022-10-01T15:43:21.423Z,26.70
2022-10-01T15:46:23.576Z,26.70
2022-10-01T15:49:26.212Z,26.70
2022-10-01T15:52:50.819Z,26.70
2022-10-01T15:55:57.083Z,26.70
2022-10-01T15:59:16.566Z,26.70
2022-10-01T16:02:31.144Z,26.70
2022-10-01T16:05:44.720Z,26.70
2022-10-01T16:09:10.710Z,26.60
2022-10-01T16:12:12.893Z,26.60
2022-10-01T16:15:31.474Z,26.60
2022-10-01T16:18:39.157Z,26.60
2022-10-01T16:21:41.257Z,26.60
2022-10-01T16:24:46.193Z,26.60
2022-10-01T16:27:50.852Z,26.60
2022-10-01T16:30:53.169Z,26.70
2022-10-01T16:33:55.417Z,26.70
2022-10-01T16:36:58.061Z,26.70
2022-10-01T16:40:00.069Z,26.70
2022-10-01T16:43:05.045Z,26.60
2022-10-01T16:46:07.104Z,26.60
2022-10-01T16:49:14.296Z,26.60
2022-10-01T16:52:19.105Z,26.70
2022-10-01T16:55:29.985Z,26.70
2022-10-01T16:58:32.423Z,26.60
2022-10-01T17:01:34.942Z,26.60
2022-10-01T17:04:36.960Z,26.50
2022-10-01T17:07:39.048Z,26.50
2022-10-01T17:10:48.330Z,26.40
2022-10-01T17:13:51.471Z,26.40
2022-10-01T17:16:53.708Z,26.20
2022-10-01T17:19:55.991Z,26.10
2022-10-01T17:22:58.724Z,26.00
2022-10-01T17:26:01.197Z,25.90
2022-10-01T17:29:03.287Z,25.80
2022-10-01T17:32:05.436Z,25.70
2022-10-01T17:35:07.918Z,25.60
2022-10-01T17:38:11.204Z,25.50
2022-10-01T17:41:13.208Z,25.40
2022-10-01T17:44:15.351Z,25.30
2022-10-01T17:47:18.473Z,25.10
2022-10-01T17:50:20.576Z,25.00
2022-10-01T17:53:22.565Z,24.90
2022-10-01T17:56:24.808Z,24.80
2022-10-01T17:59:27.086Z,24.70
2022-10-01T18:02:41.651Z,24.60
2022-10-01T18:05:45.420Z,24.50
2022-10-01T18:08:56.239Z,24.30
2022-10-01T18:11:58.644Z,24.20
2022-10-01T18:15:01.482Z,24.10
2022-10-01T18:21:25.700Z,23.90
2022-10-01T18:24:28.822Z,23.80
2022-10-01T18:27:31.167Z,23.70
2022-10-01T18:30:33.538Z,23.60
2022-10-01T18:33:35.952Z,23.50
2022-10-01T18:37:03.104Z,23.40
2022-10-01T18:40:11.164Z,23.30
2022-10-01T18:43:17.670Z,23.20
2022-10-01T18:46:40.170Z,23.10
2022-10-01T18:50:27.932Z,23.10
2022-10-01T18:53:29.982Z,23.00
2022-10-01T18:56:37.702Z,22.90
2022-10-01T19:00:08.909Z,22.90
2022-10-01T19:03:45.827Z,22.80
2022-10-01T19:06:56.619Z,22.70
2022-10-01T19:10:26.539Z,22.70
2022-10-01T19:13:45.792Z,22.70
2022-10-01T19:16:51.333Z,22.70
2022-10-01T19:20:02.361Z,22.60
2022-10-01T19:23:11.897Z,22.50
2022-10-01T19:26:36.542Z,22.50
2022-10-01T19:30:03.396Z,22.50
2022-10-01T19:33:10.848Z,22.50
2022-10-01T19:36:26.250Z,22.40
2022-10-01T19:39:33.208Z,22.40
2022-10-01T19:42:40.481Z,22.30
2022-10-01T19:46:07.044Z,22.30
2022-10-01T19:49:23.016Z,22.30
2022-10-01T19:52:26.024Z,22.20
2022-10-01T19:55:38.770Z,22.10
2022-10-01T19:58:41.452Z,22.10
2022-10-01T20:01:53.966Z,22.10
2022-10-01T20:05:01.827Z,22.00
2022-10-01T20:08:13.982Z,22.00
2022-10-01T20:11:30.972Z,22.00
2022-10-01T20:15:15.999Z,22.00
2022-10-01T20:18:39.543Z,22.00
2022-10-01T20:22:04.938Z,21.90
2022-10-01T20:25:39.971Z,21.90
2022-10-01T20:29:00.792Z,21.80
2022-10-01T20:32:06.940Z,21.80
2022-10-01T20:35:17.656Z,21.80
2022-10-01T20:38:32.157Z,21.80
2022-10-01T20:41:42.462Z,21.80
2022-10-01T20:44:46.116Z,21.80
2022-10-01T20:47:55.346Z,21.70
2022-10-01T20:51:06.844Z,21.70
2022-10-01T20:54:23.280Z,21.60
2022-10-01T20:57:51.595Z,21.60
2022-10-01T21:01:15.852Z,21.60
2022-10-01T21:04:23.714Z,21.60
2022-10-01T21:07:37.854Z,21.50
2022-10-01T21:10:59.682Z,21.50
2022-10-01T21:14:33.519Z,21.50
2022-10-01T21:18:03.215Z,21.50
2022-10-01T21:21:23.424Z,21.40
2022-10-01T21:24:47.218Z,21.40
2022-10-01T21:28:26.568Z,21.30
2022-10-01T21:32:05.131Z,21.30
2022-10-01T21:35:25.424Z,21.20
2022-10-01T21:38:49.091Z,21.20
2022-10-01T21:42:15.536Z,21.20
2022-10-01T21:45:50.177Z,21.10
2022-10-01T21:49:03.526Z,21.10
2022-10-01T21:52:26.717Z,21.10
2022-10-01T21:55:58.954Z,21.10
2022-10-01T21:59:31.377Z,21.10
2022-10-01T22:02:50.159Z,21.00
2022-10-01T22:06:24.111Z,21.00
2022-10-01T22:09:43.109Z,21.00
2022-10-01T22:12:50.300Z,21.00
2022-10-01T22:15:56.808Z,21.00
2022-10-01T22:19:07.188Z,20.90
2022-10-01T22:22:25.691Z,20.90
2022-10-01T22:25:30.494Z,20.90
2022-10-01T22:28:39.533Z,20.90
2022-10-01T22:31:43.227Z,20.80
2022-10-01T22:34:55.661Z,20.80
2022-10-01T22:38:07.556Z,20.80
2022-10-01T22:41:56.927Z,20.80
2022-10-01T22:45:09.234Z,20.80
2022-10-01T22:48:23.274Z,20.70
2022-10-01T22:51:46.673Z,20.70
2022-10-01T22:55:06.715Z,20.70
2022-10-01T22:58:29.542Z,20.70
2022-10-01T23:01:37.531Z,20.60
2022-10-01T23:04:45.778Z,20.60
2022-10-01T23:08:18.367Z,20.60
2022-10-01T23:11:47.295Z,20.60
2022-10-01T23:15:11.932Z,20.60
2022-10-01T23:18:15.379Z,20.60
2022-10-01T23:21:30.300Z,20.60
2022-10-01T23:24:50.983Z,20.60
2022-10-01T23:28:14.010Z,20.50
2022-10-01T23:31:23.691Z,20.50
2022-10-01T23:34:26.012Z,20.50
2022-10-01T23:37:52.865Z,20.50
2022-10-01T23:40:59.670Z,20.50
2022-10-01T23:44:32.257Z,20.40
2022-10-01T23:47:42.803Z,20.40
2022-10-01T23:51:10.081Z,20.40
2022-10-01T23:54:17.902Z,20.40
2022-10-01T23:57:30.123Z,20.40
